createdAt,value
2017-05-14T00:00:49.511Z,2.68
2017-05-14T00:03:17.261Z,2.58
2017-05-14T00:05:44.238Z,2.48
2017-05-14T00:08:12.677Z,2.40
2017-05-14T00:10:39.632Z,2.74
2017-05-14T00:13:06.626Z,2.32
2017-05-14T00:15:33.595Z,2.56
2017-05-14T00:18:00.595Z,2.42
2017-05-14T00:20:28.307Z,2.64
2017-05-14T00:22:55.302Z,2.32
2017-05-14T00:25:23.079Z,2.26
2017-05-14T00:27:50.085Z,2.28
2017-05-14T00:30:17.051Z,2.32
2017-05-14T00:32:44.766Z,2.50
2017-05-14T00:35:11.753Z,2.54
2017-05-14T00:37:38.725Z,2.96
2017-05-14T00:40:05.714Z,2.54
2017-05-14T00:42:32.681Z,2.80
2017-05-14T00:44:59.662Z,2.56
2017-05-14T00:47:26.624Z,2.50
2017-05-14T00:49:54.006Z,2.56
2017-05-14T00:52:20.983Z,2.52
2017-05-14T00:54:48.697Z,2.66
2017-05-14T00:57:15.702Z,2.60
2017-05-14T00:59:43.419Z,2.88
2017-05-14T01:02:10.408Z,2.76
2017-05-14T01:04:38.139Z,2.34
2017-05-14T01:07:05.129Z,2.30
2017-05-14T01:09:32.840Z,2.52
2017-05-14T01:12:00.094Z,2.70
2017-05-14T01:14:27.090Z,2.60
2017-05-14T01:16:54.073Z,2.26
2017-05-14T01:19:21.089Z,2.06
2017-05-14T01:21:48.057Z,2.62
2017-05-14T01:24:15.049Z,2.10
2017-05-14T01:26:42.022Z,2.22
2017-05-14T01:29:09.767Z,2.28
2017-05-14T01:31:37.499Z,2.32
2017-05-14T01:34:04.503Z,2.12
2017-05-14T01:36:31.517Z,2.12
2017-05-14T01:38:58.506Z,2.06
2017-05-14T01:41:25.528Z,2.14
2017-05-14T01:43:53.267Z,1.86
2017-05-14T01:46:20.283Z,2.60
2017-05-14T01:48:47.263Z,1.80
2017-05-14T01:51:14.238Z,2.02
2017-05-14T01:53:41.250Z,2.26
2017-05-14T01:56:08.221Z,2.20
2017-05-14T01:58:35.952Z,2.12
2017-05-14T02:01:02.924Z,1.86
2017-05-14T02:03:30.680Z,2.40
2017-05-14T02:05:57.646Z,2.10
2017-05-14T02:08:25.383Z,2.42
2017-05-14T02:10:52.355Z,1.98
2017-05-14T02:13:20.062Z,2.02
2017-05-14T02:15:47.056Z,2.20
2017-05-14T02:18:14.765Z,2.28
2017-05-14T02:20:41.750Z,2.10
2017-05-14T02:23:08.723Z,1.88
2017-05-14T02:25:35.713Z,2.34
2017-05-14T02:28:02.680Z,2.06
2017-05-14T02:30:29.662Z,1.92
2017-05-14T02:32:56.631Z,2.10
2017-05-14T02:35:23.641Z,2.34
2017-05-14T02:37:51.366Z,2.92
2017-05-14T02:40:18.337Z,1.90
2017-05-14T02:42:45.326Z,1.84
2017-05-14T02:45:12.299Z,1.98
2017-05-14T02:47:39.292Z,2.48
2017-05-14T02:50:06.996Z,2.50
2017-05-14T02:52:33.987Z,1.94
2017-05-14T02:55:00.951Z,1.76
2017-05-14T02:57:28.685Z,1.88
2017-05-14T02:59:55.653Z,1.76
2017-05-14T03:02:23.377Z,1.88
2017-05-14T03:04:50.378Z,2.08
2017-05-14T03:07:17.381Z,2.36
2017-05-14T03:09:44.351Z,2.30
2017-05-14T03:12:12.068Z,2.36
2017-05-14T03:14:39.061Z,1.80
2017-05-14T03:17:06.766Z,2.40
2017-05-14T03:19:33.766Z,2.16
2017-05-14T03:22:01.467Z,2.54
2017-05-14T03:24:28.460Z,1.90
2017-05-14T03:26:55.431Z,1.92
2017-05-14T03:29:23.185Z,2.52
2017-05-14T03:31:50.894Z,2.32
2017-05-14T03:34:17.864Z,2.64
2017-05-14T03:36:44.850Z,2.18
2017-05-14T03:39:12.571Z,2.02
2017-05-14T03:41:39.558Z,2.40
2017-05-14T03:44:07.262Z,2.38
2017-05-14T03:46:34.260Z,2.48
2017-05-14T03:49:01.975Z,2.16
2017-05-14T03:51:28.991Z,1.92
2017-05-14T03:53:55.957Z,2.40
2017-05-14T03:56:22.929Z,2.34
2017-05-14T03:58:49.910Z,2.38
2017-05-14T04:01:17.838Z,2.40
2017-05-14T04:03:44.884Z,2.46
2017-05-14T04:06:11.850Z,2.36
2017-05-14T04:08:38.946Z,2.02
2017-05-14T04:11:05.915Z,2.22
2017-05-14T04:13:32.926Z,2.66
2017-05-14T04:15:59.894Z,2.30
2017-05-14T04:18:26.866Z,2.00
2017-05-14T04:20:53.862Z,2.20
2017-05-14T04:23:20.841Z,2.14
2017-05-14T04:25:48.062Z,2.24
2017-05-14T04:28:15.142Z,2.40
2017-05-14T04:30:42.352Z,2.76
2017-05-14T04:33:10.079Z,2.58
2017-05-14T04:35:37.076Z,2.52
2017-05-14T04:38:04.039Z,2.44
2017-05-14T04:40:31.034Z,2.60
2017-05-14T04:42:58.003Z,2.88
2017-05-14T04:45:26.085Z,2.78
2017-05-14T04:47:53.214Z,2.62
2017-05-14T04:50:20.936Z,2.86
2017-05-14T04:52:47.927Z,2.56
2017-05-14T04:55:15.642Z,2.34
2017-05-14T04:57:42.695Z,2.88
2017-05-14T05:00:09.674Z,2.96
2017-05-14T05:02:37.431Z,2.80
2017-05-14T05:05:04.397Z,2.48
2017-05-14T05:07:32.559Z,3.00
2017-05-14T05:10:00.263Z,2.58
2017-05-14T05:12:27.234Z,2.74
2017-05-14T05:14:54.233Z,2.36
2017-05-14T05:17:21.852Z,2.44
2017-05-14T05:19:48.837Z,2.94
2017-05-14T05:22:16.763Z,3.54
2017-05-14T05:24:43.791Z,2.30
2017-05-14T05:27:10.762Z,2.58
2017-05-14T05:29:37.773Z,2.66
2017-05-14T05:32:04.752Z,2.46
2017-05-14T05:34:31.734Z,2.76
2017-05-14T05:36:58.738Z,2.56
2017-05-14T05:39:25.724Z,2.72
2017-05-14T05:41:53.484Z,2.60
2017-05-14T05:44:21.201Z,2.98
2017-05-14T05:46:48.187Z,2.88
2017-05-14T05:49:15.905Z,3.16
2017-05-14T05:51:42.901Z,2.42
2017-05-14T05:54:10.607Z,2.64
2017-05-14T05:56:37.582Z,2.68
2017-05-14T05:59:04.580Z,2.74
2017-05-14T06:01:31.552Z,2.90
2017-05-14T06:03:58.566Z,2.70
2017-05-14T06:06:25.531Z,2.50
2017-05-14T06:08:52.535Z,2.40
2017-05-14T06:11:20.255Z,2.52
2017-05-14T06:13:47.251Z,2.10
2017-05-14T06:16:14.233Z,2.60
2017-05-14T06:18:41.238Z,2.30
2017-05-14T06:21:08.214Z,1.90
2017-05-14T06:23:35.227Z,1.88
2017-05-14T06:26:02.200Z,1.72
2017-05-14T06:28:29.170Z,1.60
2017-05-14T06:30:56.175Z,1.30
2017-05-14T06:33:23.169Z,1.22
2017-05-14T06:35:50.154Z,1.54
2017-05-14T06:38:17.871Z,1.54
2017-05-14T06:40:44.872Z,1.30
2017-05-14T06:43:11.841Z,1.62
2017-05-14T06:45:38.811Z,1.68
2017-05-14T06:48:05.834Z,1.38
2017-05-14T06:50:32.802Z,1.72
2017-05-14T06:52:59.815Z,1.22
2017-05-14T06:55:26.793Z,1.30
2017-05-14T06:57:53.795Z,1.20
2017-05-14T07:00:20.757Z,1.36
2017-05-14T07:02:47.775Z,1.38
2017-05-14T07:05:15.492Z,1.42
2017-05-14T07:07:42.486Z,1.16
2017-05-14T07:10:10.193Z,1.74
2017-05-14T07:12:37.158Z,1.68
2017-05-14T07:15:04.157Z,1.80
2017-05-14T07:17:31.126Z,1.60
2017-05-14T07:19:58.113Z,1.40
2017-05-14T07:22:25.079Z,1.22
2017-05-14T07:24:52.817Z,1.64
2017-05-14T07:27:19.789Z,1.54
2017-05-14T07:29:47.543Z,1.50
2017-05-14T07:32:15.241Z,1.72
2017-05-14T07:34:42.207Z,2.50
2017-05-14T07:37:09.198Z,3.54
2017-05-14T07:39:36.897Z,2.58
2017-05-14T07:42:03.885Z,2.50
2017-05-14T07:44:30.943Z,2.42
2017-05-14T07:46:57.929Z,2.94
2017-05-14T07:49:24.889Z,2.96
2017-05-14T07:51:53.263Z,2.88
2017-05-14T07:54:21.958Z,2.94
2017-05-14T07:56:50.818Z,2.42
2017-05-14T07:59:18.752Z,2.40
2017-05-14T08:01:46.496Z,2.12
2017-05-14T08:04:13.661Z,1.94
2017-05-14T08:06:40.632Z,3.06
2017-05-14T08:09:08.400Z,3.44
2017-05-14T08:11:36.100Z,2.92
2017-05-14T08:14:03.220Z,3.14
2017-05-14T08:16:30.235Z,3.20
2017-05-14T08:18:57.224Z,4.48
2017-05-14T08:21:24.215Z,2.82
2017-05-14T08:23:51.265Z,2.86
2017-05-14T08:26:18.242Z,2.70
2017-05-14T08:28:46.157Z,2.22
2017-05-14T08:31:13.204Z,2.54
2017-05-14T08:33:40.184Z,2.42
2017-05-14T08:36:07.182Z,2.62
2017-05-14T08:38:34.141Z,2.82
2017-05-14T08:41:01.200Z,2.50
2017-05-14T08:43:28.198Z,2.18
2017-05-14T08:45:55.209Z,4.38
2017-05-14T08:48:22.178Z,3.94
2017-05-14T08:50:49.889Z,2.80
2017-05-14T08:53:16.875Z,2.50
2017-05-14T08:55:43.837Z,2.40
2017-05-14T08:58:11.568Z,2.36
2017-05-14T09:00:38.538Z,2.44
2017-05-14T09:03:06.352Z,2.38
2017-05-14T09:05:33.327Z,2.30
2017-05-14T09:08:00.400Z,2.38
2017-05-14T09:10:28.177Z,2.78
2017-05-14T09:12:55.226Z,2.12
2017-05-14T09:15:22.273Z,2.40
2017-05-14T09:17:49.370Z,2.20
2017-05-14T09:20:16.343Z,2.74
2017-05-14T09:22:43.337Z,2.38
2017-05-14T09:25:10.433Z,2.20
2017-05-14T09:27:37.718Z,2.02
2017-05-14T09:30:04.778Z,2.90
2017-05-14T09:32:31.778Z,2.12
2017-05-14T09:34:58.782Z,2.10
2017-05-14T09:37:25.767Z,2.52
2017-05-14T09:39:52.775Z,2.76
2017-05-14T09:42:19.755Z,3.06
2017-05-14T09:44:47.788Z,2.36
2017-05-14T09:47:14.896Z,2.54
2017-05-14T09:49:42.084Z,2.38
2017-05-14T09:52:09.191Z,1.94
2017-05-14T09:54:36.289Z,2.18
2017-05-14T09:57:03.320Z,2.34
2017-05-14T09:59:30.477Z,2.54
2017-05-14T10:01:57.454Z,2.50
2017-05-14T10:04:24.499Z,2.54
2017-05-14T10:06:51.475Z,1.94
2017-05-14T10:09:18.519Z,1.94
2017-05-14T10:11:45.656Z,2.34
2017-05-14T10:14:12.709Z,2.28
2017-05-14T10:16:39.706Z,2.18
2017-05-14T10:19:06.854Z,2.20
2017-05-14T10:21:33.847Z,2.60
2017-05-14T10:24:01.132Z,2.40
2017-05-14T10:26:28.878Z,2.34
2017-05-14T10:28:55.988Z,2.30
2017-05-14T10:31:22.973Z,2.58
2017-05-14T10:33:49.951Z,2.00
2017-05-14T10:36:17.031Z,2.40
2017-05-14T10:38:44.737Z,2.24
2017-05-14T10:41:11.721Z,2.30
2017-05-14T10:43:38.689Z,2.50
2017-05-14T10:46:06.424Z,2.48
2017-05-14T10:48:33.397Z,2.04
2017-05-14T10:51:00.385Z,2.16
2017-05-14T10:53:28.101Z,2.04
2017-05-14T10:55:55.078Z,2.36
2017-05-14T10:58:22.054Z,2.04
2017-05-14T11:00:49.766Z,2.10
2017-05-14T11:03:16.777Z,1.90
2017-05-14T11:05:43.738Z,1.66
2017-05-14T11:08:10.745Z,2.20
2017-05-14T11:10:37.704Z,2.00
2017-05-14T11:13:04.702Z,2.18
2017-05-14T11:15:31.668Z,2.16
2017-05-14T11:17:58.653Z,2.12
2017-05-14T11:20:25.617Z,1.98
2017-05-14T11:22:53.341Z,2.30
2017-05-14T11:25:20.312Z,2.30
2017-05-14T11:27:47.303Z,2.60
2017-05-14T11:30:14.277Z,2.76
2017-05-14T11:32:41.263Z,2.44
2017-05-14T11:35:08.973Z,2.60
2017-05-14T11:37:35.969Z,2.60
2017-05-14T11:40:02.938Z,2.22
2017-05-14T11:42:29.892Z,2.40
2017-05-14T11:44:56.887Z,2.68
2017-05-14T11:47:23.854Z,2.22
2017-05-14T11:49:50.850Z,2.20
2017-05-14T11:52:17.869Z,2.06
2017-05-14T11:54:45.700Z,1.90
2017-05-14T11:57:12.668Z,2.42
2017-05-14T11:59:40.380Z,2.20
2017-05-14T12:02:07.374Z,2.42
2017-05-14T12:04:35.105Z,2.80
2017-05-14T12:07:02.105Z,2.28
2017-05-14T12:09:29.070Z,2.00
2017-05-14T12:11:56.066Z,2.18
2017-05-14T12:14:23.775Z,2.12
2017-05-14T12:16:50.791Z,2.42
2017-05-14T12:19:18.507Z,2.24
2017-05-14T12:21:45.470Z,2.96
2017-05-14T12:24:13.274Z,2.60
2017-05-14T12:26:40.245Z,2.18
2017-05-14T12:29:07.231Z,2.72
2017-05-14T12:31:34.209Z,2.18
2017-05-14T12:34:01.213Z,2.46
2017-05-14T12:36:28.182Z,2.68
2017-05-14T12:38:55.915Z,2.68
2017-05-14T12:41:22.896Z,2.42
2017-05-14T12:43:50.633Z,1.94
2017-05-14T12:46:17.594Z,2.34
2017-05-14T12:48:44.594Z,1.96
2017-05-14T12:51:11.570Z,2.38
2017-05-14T12:53:38.594Z,2.10
2017-05-14T12:56:05.556Z,2.10
2017-05-14T12:58:32.506Z,2.30
2017-05-14T13:01:06.359Z,2.40
2017-05-14T13:03:33.354Z,2.02
2017-05-14T13:06:00.346Z,2.10
2017-05-14T13:08:28.058Z,2.30
2017-05-14T13:10:55.090Z,2.44
2017-05-14T13:13:22.061Z,1.84
2017-05-14T13:15:49.058Z,1.84
2017-05-14T13:18:16.061Z,2.18
2017-05-14T13:20:43.044Z,2.08
2017-05-14T13:23:10.005Z,1.72
2017-05-14T13:25:37.700Z,2.16
2017-05-14T13:28:04.684Z,1.72
2017-05-14T13:30:31.655Z,1.80
2017-05-14T13:32:58.654Z,2.20
2017-05-14T13:35:25.615Z,2.58
2017-05-14T13:37:53.370Z,2.24
2017-05-14T13:40:21.084Z,2.16
2017-05-14T13:42:48.087Z,1.84
2017-05-14T13:45:15.795Z,1.84
2017-05-14T13:47:42.793Z,1.70
2017-05-14T13:50:10.938Z,1.96
2017-05-14T13:52:37.930Z,1.92
2017-05-14T13:55:04.892Z,1.98
2017-05-14T13:57:31.845Z,2.60
2017-05-14T13:59:58.832Z,2.76
2017-05-14T14:02:25.804Z,2.44
2017-05-14T14:04:53.563Z,2.02
2017-05-14T14:07:21.273Z,2.00
2017-05-14T14:09:48.265Z,2.68
2017-05-14T14:12:15.973Z,2.70
2017-05-14T14:14:43.003Z,2.64
2017-05-14T14:17:09.982Z,3.60
2017-05-14T14:19:36.950Z,3.34
2017-05-14T14:22:03.947Z,2.60
2017-05-14T14:24:30.910Z,2.52
2017-05-14T14:26:57.908Z,1.98
2017-05-14T14:29:25.609Z,2.18
2017-05-14T14:31:52.594Z,2.26
2017-05-14T14:34:19.550Z,2.00
2017-05-14T14:36:46.548Z,2.22
2017-05-14T14:39:13.512Z,2.44
2017-05-14T14:41:40.501Z,1.86
2017-05-14T14:44:08.219Z,2.08
2017-05-14T14:46:35.222Z,2.28
2017-05-14T14:49:02.199Z,2.10
2017-05-14T14:51:29.188Z,2.32
2017-05-14T14:53:56.164Z,2.62
2017-05-14T14:56:23.315Z,2.54
2017-05-14T14:58:50.291Z,2.20
2017-05-14T15:01:17.287Z,2.94
2017-05-14T15:03:45.027Z,3.00
2017-05-14T15:06:12.049Z,2.30
2017-05-14T15:08:39.011Z,2.84
2017-05-14T15:11:05.969Z,2.42
2017-05-14T15:13:32.974Z,2.18
2017-05-14T15:15:59.957Z,2.58
2017-05-14T15:18:26.960Z,2.52
2017-05-14T15:20:53.936Z,2.60
2017-05-14T15:23:20.953Z,2.84
2017-05-14T15:25:47.931Z,3.06
2017-05-14T15:28:15.665Z,2.68
2017-05-14T15:30:42.659Z,1.72
2017-05-14T15:33:09.653Z,2.00
2017-05-14T15:35:36.623Z,2.66
2017-05-14T15:38:03.616Z,1.50
2017-05-14T15:40:30.586Z,2.16
2017-05-14T15:42:57.605Z,2.20
2017-05-14T15:45:24.573Z,2.26
2017-05-14T15:47:51.532Z,1.84
2017-05-14T15:50:18.569Z,1.94
2017-05-14T15:52:45.543Z,1.70
2017-05-14T15:55:12.529Z,1.60
2017-05-14T15:57:39.509Z,1.52
2017-05-14T16:00:06.512Z,1.66
2017-05-14T16:02:33.485Z,1.40
2017-05-14T16:05:00.508Z,1.60
2017-05-14T16:07:27.478Z,1.86
2017-05-14T16:09:54.489Z,1.86
2017-05-14T16:12:22.202Z,1.90
2017-05-14T16:14:49.295Z,2.10
2017-05-14T16:17:17.001Z,2.02
2017-05-14T16:19:44.034Z,3.52
2017-05-14T16:22:11.043Z,4.30
2017-05-14T16:24:38.773Z,2.84
2017-05-14T16:27:05.789Z,3.00
2017-05-14T16:29:32.812Z,3.32
2017-05-14T16:32:00.553Z,4.24
2017-05-14T16:34:27.520Z,2.50
2017-05-14T16:36:55.263Z,2.70
2017-05-14T16:39:22.229Z,2.42
2017-05-14T16:41:49.970Z,4.42
2017-05-14T16:44:16.937Z,3.62
2017-05-14T16:46:44.677Z,2.54
2017-05-14T16:49:12.644Z,2.42
2017-05-14T16:51:39.664Z,1.80
2017-05-14T16:54:06.630Z,1.76
2017-05-14T16:56:33.630Z,1.54
2017-05-14T16:59:00.619Z,1.56
2017-05-14T17:01:27.620Z,2.00
2017-05-14T17:03:54.748Z,1.80
2017-05-14T17:06:21.724Z,1.80
2017-05-14T17:08:48.718Z,2.44
2017-05-14T17:11:15.690Z,1.70
2017-05-14T17:13:43.510Z,1.76
2017-05-14T17:16:10.490Z,1.72
2017-05-14T17:18:38.231Z,1.72
2017-05-14T17:21:06.972Z,2.22
2017-05-14T17:23:34.023Z,1.74
2017-05-14T17:26:01.134Z,1.58
2017-05-14T17:28:28.933Z,1.16
2017-05-14T17:30:55.916Z,1.36
2017-05-14T17:33:22.924Z,1.60
2017-05-14T17:35:50.451Z,1.22
2017-05-14T17:38:18.165Z,1.10
2017-05-14T17:40:45.160Z,1.32
2017-05-14T17:43:12.869Z,1.30
2017-05-14T17:45:39.986Z,1.70
2017-05-14T17:48:06.963Z,1.76
2017-05-14T17:50:33.949Z,1.66
2017-05-14T17:53:01.665Z,1.44
2017-05-14T17:55:28.658Z,1.30
2017-05-14T17:57:56.366Z,1.24
2017-05-14T18:00:23.389Z,1.16
2017-05-14T18:02:50.375Z,1.20
2017-05-14T18:05:17.374Z,1.02
2017-05-14T18:07:44.369Z,1.18
2017-05-14T18:10:11.325Z,1.46
2017-05-14T18:12:38.314Z,1.60
2017-05-14T18:15:05.280Z,1.54
2017-05-14T18:17:32.275Z,1.68
2017-05-14T18:19:59.297Z,1.76
2017-05-14T18:22:26.294Z,1.58
2017-05-14T18:24:53.265Z,1.52
2017-05-14T18:27:20.267Z,1.60
2017-05-14T18:29:48.004Z,1.50
2017-05-14T18:32:14.994Z,1.64
2017-05-14T18:34:42.709Z,1.54
2017-05-14T18:37:09.841Z,1.98
2017-05-14T18:39:36.807Z,1.80
2017-05-14T18:42:03.822Z,1.66
2017-05-14T18:44:30.786Z,1.70
2017-05-14T18:46:57.759Z,1.56
2017-05-14T18:49:24.754Z,1.82
2017-05-14T18:51:52.658Z,1.90
2017-05-14T18:54:20.749Z,1.68
2017-05-14T18:56:48.391Z,1.64
2017-05-14T18:59:17.139Z,1.80
2017-05-14T19:01:45.461Z,2.00
2017-05-14T19:04:14.081Z,2.30
2017-05-14T19:06:42.538Z,1.82
2017-05-14T19:09:10.295Z,2.50
2017-05-14T19:11:38.351Z,2.26
2017-05-14T19:14:06.526Z,3.18
2017-05-14T19:16:33.966Z,2.70
2017-05-14T19:19:01.922Z,3.30
2017-05-14T19:21:29.804Z,2.68
2017-05-14T19:23:57.184Z,3.40
2017-05-14T19:26:25.563Z,2.88
2017-05-14T19:28:54.475Z,2.90
2017-05-14T19:31:23.151Z,3.48
2017-05-14T19:33:51.711Z,3.28
2017-05-14T19:36:19.272Z,3.22
2017-05-14T19:38:46.744Z,2.42
2017-05-14T19:41:15.444Z,2.68
2017-05-14T19:43:43.180Z,2.30
2017-05-14T19:46:11.761Z,2.44
2017-05-14T19:48:39.535Z,1.98
2017-05-14T19:51:07.692Z,2.42
2017-05-14T19:53:36.318Z,2.40
2017-05-14T19:56:04.628Z,2.28
2017-05-14T19:58:32.967Z,2.12
2017-05-14T20:01:00.377Z,2.54
2017-05-14T20:03:28.405Z,2.74
2017-05-14T20:05:56.630Z,2.46
2017-05-14T20:08:24.660Z,2.92
2017-05-14T20:10:52.043Z,2.44
2017-05-14T20:13:19.577Z,2.32
2017-05-14T20:15:48.499Z,2.84
2017-05-14T20:18:16.031Z,2.58
2017-05-14T20:20:44.584Z,2.38
2017-05-14T20:23:11.667Z,2.82
2017-05-14T20:25:38.638Z,2.94
2017-05-14T20:28:06.370Z,3.04
2017-05-14T20:30:33.580Z,2.84
2017-05-14T20:33:00.574Z,2.84
2017-05-14T20:35:27.543Z,2.14
2017-05-14T20:37:55.446Z,2.36
2017-05-14T20:40:22.426Z,2.88
2017-05-14T20:42:49.423Z,2.52
2017-05-14T20:45:16.400Z,2.90
2017-05-14T20:47:43.401Z,2.70
2017-05-14T20:50:11.124Z,2.84
2017-05-14T20:52:38.137Z,3.20
2017-05-14T20:55:05.100Z,2.90
2017-05-14T20:57:32.122Z,3.04
2017-05-14T20:59:59.106Z,3.20
2017-05-14T21:02:26.073Z,3.36
2017-05-14T21:04:53.080Z,3.72
2017-05-14T21:07:20.044Z,3.40
2017-05-14T21:09:47.029Z,3.48
2017-05-14T21:12:14.742Z,3.28
2017-05-14T21:14:41.740Z,3.48
2017-05-14T21:17:09.465Z,4.50
2017-05-14T21:19:36.447Z,4.88
2017-05-14T21:22:04.195Z,4.70
2017-05-14T21:24:31.373Z,3.46
2017-05-14T21:26:58.453Z,2.80
2017-05-14T21:29:25.437Z,3.32
2017-05-14T21:31:52.427Z,3.32
2017-05-14T21:34:19.403Z,3.60
2017-05-14T21:36:46.390Z,3.36
2017-05-14T21:39:14.107Z,3.50
2017-05-14T21:41:41.104Z,3.62
2017-05-14T21:44:08.812Z,4.18
2017-05-14T21:46:35.784Z,4.08
2017-05-14T21:49:02.770Z,4.66
2017-05-14T21:51:30.483Z,4.10
2017-05-14T21:53:57.471Z,4.10
2017-05-14T21:56:25.169Z,4.12
2017-05-14T21:58:52.160Z,3.98
2017-05-14T22:01:19.227Z,4.32
2017-05-14T22:03:46.266Z,4.02
2017-05-14T22:06:13.225Z,3.96
2017-05-14T22:08:40.978Z,3.70
2017-05-14T22:11:08.690Z,3.74
2017-05-14T22:13:35.691Z,4.26
2017-05-14T22:16:03.405Z,3.10
2017-05-14T22:18:30.364Z,4.48
2017-05-14T22:20:57.343Z,4.66
2017-05-14T22:23:25.057Z,3.78
2017-05-14T22:25:52.042Z,4.10
2017-05-14T22:28:19.014Z,3.94
2017-05-14T22:30:46.745Z,3.68
2017-05-14T22:33:13.705Z,4.62
2017-05-14T22:35:41.432Z,4.02
2017-05-14T22:38:08.395Z,4.06
2017-05-14T22:40:35.378Z,4.22
2017-05-14T22:43:02.353Z,4.40
2017-05-14T22:45:29.321Z,4.28
2017-05-14T22:47:56.403Z,4.86
2017-05-14T22:50:24.101Z,4.22
2017-05-14T22:52:51.090Z,4.68
2017-05-14T22:55:18.055Z,4.54
2017-05-14T22:57:45.794Z,4.76
2017-05-14T23:00:12.750Z,4.86
2017-05-14T23:02:39.738Z,4.20
2017-05-14T23:05:06.718Z,3.84
2017-05-14T23:07:33.908Z,3.92
2017-05-14T23:10:00.878Z,4.40
2017-05-14T23:12:28.346Z,3.80
2017-05-14T23:14:56.054Z,3.78
2017-05-14T23:17:23.083Z,4.38
2017-05-14T23:19:50.068Z,3.12
2017-05-14T23:22:17.035Z,3.48
2017-05-14T23:24:44.026Z,3.08
2017-05-14T23:27:11.009Z,2.72
2017-05-14T23:29:38.004Z,2.52
2017-05-14T23:32:04.978Z,3.20
2017-05-14T23:34:31.977Z,3.22
2017-05-14T23:36:58.941Z,2.70
2017-05-14T23:39:26.673Z,2.46
2017-05-14T23:41:53.644Z,3.08
2017-05-14T23:44:21.380Z,2.36
2017-05-14T23:46:48.345Z,2.78
2017-05-14T23:49:15.312Z,2.50
2017-05-14T23:51:43.043Z,2.38
2017-05-14T23:54:10.006Z,3.06
2017-05-14T23:56:36.989Z,2.92
2017-05-14T23:59:03.963Z,2.32
